sensor_id;sensor_type;location;lat;lon;timestamp;temperature;humidity
10419;DHT22;5256;48.728;9.140;2023-03-24T00:02:07;11.80;99.90
10419;DHT22;5256;48.728;9.140;2023-03-24T00:04:33;11.70;99.90
10419;DHT22;5256;48.728;9.140;2023-03-24T00:06:59;11.60;99.90
10419;DHT22;5256;48.728;9.140;2023-03-24T00:09:29;11.50;99.90
10419;DHT22;5256;48.728;9.140;2023-03-24T00:11:55;11.40;99.90
10419;DHT22;5256;48.728;9.140;2023-03-24T00:14:21;11.30;99.90
10419;DHT22;5256;48.728;9.140;2023-03-24T00:16:48;11.30;99.90
10419;DHT22;5256;48.728;9.140;2023-03-24T00:19:15;11.40;99.90
10419;DHT22;5256;48.728;9.140;2023-03-24T00:21:41;11.30;99.90
10419;DHT22;5256;48.728;9.140;2023-03-24T00:24:07;11.30;99.90
10419;DHT22;5256;48.728;9.140;2023-03-24T00:26:34;11.30;99.90
10419;DHT22;5256;48.728;9.140;2023-03-24T00:29:06;11.40;99.90
10419;DHT22;5256;48.728;9.140;2023-03-24T00:31:33;11.40;99.90
10419;DHT22;5256;48.728;9.140;2023-03-24T00:33:59;11.30;99.90
10419;DHT22;5256;48.728;9.140;2023-03-24T00:36:26;11.30;99.90
10419;DHT22;5256;48.728;9.140;2023-03-24T00:38:54;11.30;99.90
10419;DHT22;5256;48.728;9.140;2023-03-24T00:41:20;11.30;99.90
10419;DHT22;5256;48.728;9.140;2023-03-24T00:43:47;11.30;99.90
10419;DHT22;5256;48.728;9.140;2023-03-24T00:46:14;11.30;99.90
10419;DHT22;5256;48.728;9.140;2023-03-24T00:48:59;11.40;99.90
10419;DHT22;5256;48.728;9.140;2023-03-24T00:51:35;11.40;99.90
10419;DHT22;5256;48.728;9.140;2023-03-24T00:54:01;11.40;99.90
10419;DHT22;5256;48.728;9.140;2023-03-24T00:56:29;11.40;99.90
10419;DHT22;5256;48.728;9.140;2023-03-24T00:58:56;11.40;99.90
10419;DHT22;5256;48.728;9.140;2023-03-24T01:01:25;11.40;99.90
10419;DHT22;5256;48.728;9.140;2023-03-24T01:03:53;11.30;99.90
10419;DHT22;5256;48.728;9.140;2023-03-24T01:06:21;11.30;99.90
10419;DHT22;5256;48.728;9.140;2023-03-24T01:08:48;11.30;99.90
10419;DHT22;5256;48.728;9.140;2023-03-24T01:11:15;11.20;99.90
10419;DHT22;5256;48.728;9.140;2023-03-24T01:13:41;11.20;99.90
10419;DHT22;5256;48.728;9.140;2023-03-24T01:16:07;11.10;99.90
10419;DHT22;5256;48.728;9.140;2023-03-24T01:18:33;11.10;99.90
10419;DHT22;5256;48.728;9.140;2023-03-24T01:20:59;11.10;99.90
10419;DHT22;5256;48.728;9.140;2023-03-24T01:23:28;11.00;99.90
10419;DHT22;5256;48.728;9.140;2023-03-24T01:25:55;11.00;99.90
10419;DHT22;5256;48.728;9.140;2023-03-24T01:28:22;10.90;99.90
10419;DHT22;5256;48.728;9.140;2023-03-24T01:30:52;10.90;99.90
10419;DHT22;5256;48.728;9.140;2023-03-24T01:33:18;11.00;99.90
10419;DHT22;5256;48.728;9.140;2023-03-24T01:35:44;11.00;99.90
10419;DHT22;5256;48.728;9.140;2023-03-24T01:38:11;10.90;99.90
10419;DHT22;5256;48.728;9.140;2023-03-24T01:40:40;10.90;99.90
10419;DHT22;5256;48.728;9.140;2023-03-24T01:43:12;11.00;99.90
10419;DHT22;5256;48.728;9.140;2023-03-24T01:51:12;11.00;99.90
10419;DHT22;5256;48.728;9.140;2023-03-24T01:53:44;11.10;99.90
10419;DHT22;5256;48.728;9.140;2023-03-24T01:56:11;11.00;99.90
10419;DHT22;5256;48.728;9.140;2023-03-24T01:58:40;11.00;99.90
10419;DHT22;5256;48.728;9.140;2023-03-24T02:01:06;11.00;99.90
10419;DHT22;5256;48.728;9.140;2023-03-24T02:03:33;10.90;99.90
10419;DHT22;5256;48.728;9.140;2023-03-24T02:06:04;10.80;99.90
10419;DHT22;5256;48.728;9.140;2023-03-24T02:08:36;10.70;99.90
10419;DHT22;5256;48.728;9.140;2023-03-24T02:11:02;10.80;99.90
10419;DHT22;5256;48.728;9.140;2023-03-24T02:13:28;10.80;99.90
10419;DHT22;5256;48.728;9.140;2023-03-24T02:24:34;11.30;99.90
10419;DHT22;5256;48.728;9.140;2023-03-24T02:27:17;11.40;99.90
10419;DHT22;5256;48.728;9.140;2023-03-24T02:33:01;11.40;99.90
10419;DHT22;5256;48.728;9.140;2023-03-24T02:35:44;11.40;99.90
10419;DHT22;5256;48.728;9.140;2023-03-24T02:41:22;11.50;99.90
10419;DHT22;5256;48.728;9.140;2023-03-24T02:44:04;11.60;99.90
10419;DHT22;5256;48.728;9.140;2023-03-24T02:52:00;11.90;99.90
10419;DHT22;5256;48.728;9.140;2023-03-24T02:54:46;12.00;99.90
10419;DHT22;5256;48.728;9.140;2023-03-24T02:57:31;12.00;99.90
10419;DHT22;5256;48.728;9.140;2023-03-24T03:00:07;12.00;99.90
10419;DHT22;5256;48.728;9.140;2023-03-24T03:02:38;12.10;99.90
10419;DHT22;5256;48.728;9.140;2023-03-24T03:05:21;12.30;99.90
10419;DHT22;5256;48.728;9.140;2023-03-24T03:07:49;12.30;99.90
10419;DHT22;5256;48.728;9.140;2023-03-24T03:10:28;12.40;99.90
10419;DHT22;5256;48.728;9.140;2023-03-24T03:12:57;12.30;99.90
10419;DHT22;5256;48.728;9.140;2023-03-24T03:15:28;12.40;99.90
10419;DHT22;5256;48.728;9.140;2023-03-24T03:20:28;12.40;99.90
10419;DHT22;5256;48.728;9.140;2023-03-24T03:23:03;12.50;99.90
10419;DHT22;5256;48.728;9.140;2023-03-24T03:25:35;12.40;99.90
10419;DHT22;5256;48.728;9.140;2023-03-24T03:28:03;12.40;99.90
10419;DHT22;5256;48.728;9.140;2023-03-24T03:30:34;12.40;99.90
10419;DHT22;5256;48.728;9.140;2023-03-24T03:33:19;12.40;99.90
10419;DHT22;5256;48.728;9.140;2023-03-24T03:36:01;12.50;99.90
10419;DHT22;5256;48.728;9.140;2023-03-24T03:39:05;12.50;99.90
10419;DHT22;5256;48.728;9.140;2023-03-24T03:41:34;12.50;99.90
10419;DHT22;5256;48.728;9.140;2023-03-24T03:44:02;12.50;99.90
10419;DHT22;5256;48.728;9.140;2023-03-24T03:46:29;12.40;99.90
10419;DHT22;5256;48.728;9.140;2023-03-24T03:48:55;12.50;99.90
10419;DHT22;5256;48.728;9.140;2023-03-24T03:51:20;12.50;99.90
10419;DHT22;5256;48.728;9.140;2023-03-24T03:53:52;12.50;99.90
10419;DHT22;5256;48.728;9.140;2023-03-24T03:56:21;12.50;99.90
10419;DHT22;5256;48.728;9.140;2023-03-24T03:58:47;12.50;99.90
10419;DHT22;5256;48.728;9.140;2023-03-24T04:01:19;12.50;99.90
10419;DHT22;5256;48.728;9.140;2023-03-24T04:04:09;12.60;99.90
10419;DHT22;5256;48.728;9.140;2023-03-24T04:09:40;12.70;99.90
10419;DHT22;5256;48.728;9.140;2023-03-24T04:20:15;12.70;99.90
10419;DHT22;5256;48.728;9.140;2023-03-24T04:25:42;12.70;99.90
10419;DHT22;5256;48.728;9.140;2023-03-24T04:28:34;12.80;99.90
10419;DHT22;5256;48.728;9.140;2023-03-24T04:31:19;12.80;99.90
10419;DHT22;5256;48.728;9.140;2023-03-24T04:33:53;12.90;99.90
10419;DHT22;5256;48.728;9.140;2023-03-24T04:36:31;12.90;99.90
10419;DHT22;5256;48.728;9.140;2023-03-24T04:38:59;12.90;99.90
10419;DHT22;5256;48.728;9.140;2023-03-24T04:41:28;12.90;99.90
10419;DHT22;5256;48.728;9.140;2023-03-24T04:43:55;12.90;99.90
10419;DHT22;5256;48.728;9.140;2023-03-24T04:46:22;12.90;99.90
10419;DHT22;5256;48.728;9.140;2023-03-24T04:48:48;13.00;99.90
10419;DHT22;5256;48.728;9.140;2023-03-24T04:51:16;12.90;99.90
10419;DHT22;5256;48.728;9.140;2023-03-24T04:53:43;12.90;99.90
10419;DHT22;5256;48.728;9.140;2023-03-24T04:58:55;13.00;99.90
10419;DHT22;5256;48.728;9.140;2023-03-24T05:01:23;13.10;99.90
10419;DHT22;5256;48.728;9.140;2023-03-24T05:03:50;13.20;99.90
10419;DHT22;5256;48.728;9.140;2023-03-24T05:06:15;13.40;99.90
10419;DHT22;5256;48.728;9.140;2023-03-24T05:08:41;13.50;99.90
10419;DHT22;5256;48.728;9.140;2023-03-24T05:11:07;13.60;99.90
10419;DHT22;5256;48.728;9.140;2023-03-24T05:13:32;13.60;99.90
10419;DHT22;5256;48.728;9.140;2023-03-24T05:15:58;13.70;99.90
10419;DHT22;5256;48.728;9.140;2023-03-24T05:18:24;13.70;99.90
10419;DHT22;5256;48.728;9.140;2023-03-24T05:20:50;13.80;99.90
10419;DHT22;5256;48.728;9.140;2023-03-24T05:23:15;13.80;99.90
10419;DHT22;5256;48.728;9.140;2023-03-24T05:25:41;13.80;99.90
10419;DHT22;5256;48.728;9.140;2023-03-24T05:28:07;13.80;99.90
10419;DHT22;5256;48.728;9.140;2023-03-24T05:30:33;13.70;99.90
10419;DHT22;5256;48.728;9.140;2023-03-24T05:32:58;13.50;99.90
10419;DHT22;5256;48.728;9.140;2023-03-24T05:35:24;13.40;99.90
10419;DHT22;5256;48.728;9.140;2023-03-24T05:37:50;13.10;99.90
10419;DHT22;5256;48.728;9.140;2023-03-24T05:40:16;13.00;99.90
10419;DHT22;5256;48.728;9.140;2023-03-24T05:42:42;12.80;99.90
10419;DHT22;5256;48.728;9.140;2023-03-24T05:45:09;12.60;99.90
10419;DHT22;5256;48.728;9.140;2023-03-24T05:47:34;12.50;99.90
10419;DHT22;5256;48.728;9.140;2023-03-24T05:50:00;12.40;99.90
10419;DHT22;5256;48.728;9.140;2023-03-24T05:52:26;12.40;99.90
10419;DHT22;5256;48.728;9.140;2023-03-24T05:54:51;12.30;99.90
10419;DHT22;5256;48.728;9.140;2023-03-24T05:57:18;12.30;99.90
10419;DHT22;5256;48.728;9.140;2023-03-24T05:59:44;12.20;99.90
10419;DHT22;5256;48.728;9.140;2023-03-24T06:02:09;12.10;99.90
10419;DHT22;5256;48.728;9.140;2023-03-24T06:04:35;12.10;99.90
10419;DHT22;5256;48.728;9.140;2023-03-24T06:07:01;12.00;99.90
10419;DHT22;5256;48.728;9.140;2023-03-24T06:09:28;11.90;99.90
10419;DHT22;5256;48.728;9.140;2023-03-24T06:11:58;11.90;99.90
10419;DHT22;5256;48.728;9.140;2023-03-24T06:14:23;11.80;99.90
10419;DHT22;5256;48.728;9.140;2023-03-24T06:16:50;11.80;99.90
10419;DHT22;5256;48.728;9.140;2023-03-24T06:19:16;11.80;99.90
10419;DHT22;5256;48.728;9.140;2023-03-24T06:21:42;11.80;99.90
10419;DHT22;5256;48.728;9.140;2023-03-24T06:24:09;11.80;99.90
10419;DHT22;5256;48.728;9.140;2023-03-24T06:26:39;11.70;99.90
10419;DHT22;5256;48.728;9.140;2023-03-24T06:29:06;11.70;99.90
10419;DHT22;5256;48.728;9.140;2023-03-24T06:31:32;11.60;99.90
10419;DHT22;5256;48.728;9.140;2023-03-24T06:33:58;11.60;99.90
10419;DHT22;5256;48.728;9.140;2023-03-24T06:36:24;11.60;99.90
10419;DHT22;5256;48.728;9.140;2023-03-24T06:38:50;11.50;99.90
10419;DHT22;5256;48.728;9.140;2023-03-24T06:41:21;11.50;99.90
10419;DHT22;5256;48.728;9.140;2023-03-24T06:43:47;11.50;99.90
10419;DHT22;5256;48.728;9.140;2023-03-24T06:46:13;11.60;99.90
10419;DHT22;5256;48.728;9.140;2023-03-24T06:48:38;11.60;99.90
10419;DHT22;5256;48.728;9.140;2023-03-24T06:51:05;11.70;99.90
10419;DHT22;5256;48.728;9.140;2023-03-24T06:53:30;11.70;99.90
10419;DHT22;5256;48.728;9.140;2023-03-24T06:55:56;11.80;99.90
10419;DHT22;5256;48.728;9.140;2023-03-24T06:58:22;11.80;99.90
10419;DHT22;5256;48.728;9.140;2023-03-24T07:00:47;11.70;99.90
10419;DHT22;5256;48.728;9.140;2023-03-24T07:03:16;11.80;99.90
10419;DHT22;5256;48.728;9.140;2023-03-24T07:05:43;11.80;99.90
10419;DHT22;5256;48.728;9.140;2023-03-24T07:08:10;11.80;99.90
10419;DHT22;5256;48.728;9.140;2023-03-24T07:10:39;11.80;99.90
10419;DHT22;5256;48.728;9.140;2023-03-24T07:13:06;11.90;99.90
10419;DHT22;5256;48.728;9.140;2023-03-24T07:15:34;11.80;99.90
10419;DHT22;5256;48.728;9.140;2023-03-24T07:18:00;11.80;99.90
10419;DHT22;5256;48.728;9.140;2023-03-24T07:20:26;11.70;99.90
10419;DHT22;5256;48.728;9.140;2023-03-24T07:22:55;11.70;99.90
10419;DHT22;5256;48.728;9.140;2023-03-24T07:25:21;11.60;99.90
10419;DHT22;5256;48.728;9.140;2023-03-24T07:27:46;11.50;99.90
10419;DHT22;5256;48.728;9.140;2023-03-24T07:30:12;11.50;99.90
10419;DHT22;5256;48.728;9.140;2023-03-24T07:32:39;11.40;99.90
10419;DHT22;5256;48.728;9.140;2023-03-24T07:35:09;11.40;99.90
10419;DHT22;5256;48.728;9.140;2023-03-24T07:37:36;11.40;99.90
10419;DHT22;5256;48.728;9.140;2023-03-24T07:40:05;11.30;99.90
10419;DHT22;5256;48.728;9.140;2023-03-24T07:42:34;11.30;99.90
10419;DHT22;5256;48.728;9.140;2023-03-24T07:44:59;11.30;99.90
10419;DHT22;5256;48.728;9.140;2023-03-24T07:47:25;11.30;99.90
10419;DHT22;5256;48.728;9.140;2023-03-24T07:49:50;11.30;99.90
10419;DHT22;5256;48.728;9.140;2023-03-24T07:52:16;11.30;99.90
10419;DHT22;5256;48.728;9.140;2023-03-24T07:54:41;11.20;99.90
10419;DHT22;5256;48.728;9.140;2023-03-24T07:57:07;11.30;99.90
10419;DHT22;5256;48.728;9.140;2023-03-24T07:59:33;11.30;99.90
10419;DHT22;5256;48.728;9.140;2023-03-24T08:01:59;11.30;99.90
10419;DHT22;5256;48.728;9.140;2023-03-24T08:04:24;11.30;99.90
10419;DHT22;5256;48.728;9.140;2023-03-24T08:06:52;11.40;99.90
10419;DHT22;5256;48.728;9.140;2023-03-24T08:09:18;11.40;99.90
10419;DHT22;5256;48.728;9.140;2023-03-24T08:11:44;11.40;99.90
10419;DHT22;5256;48.728;9.140;2023-03-24T08:14:10;11.40;99.90
10419;DHT22;5256;48.728;9.140;2023-03-24T08:16:35;11.40;99.90
10419;DHT22;5256;48.728;9.140;2023-03-24T08:19:03;11.50;99.90
10419;DHT22;5256;48.728;9.140;2023-03-24T08:21:29;11.50;99.90
10419;DHT22;5256;48.728;9.140;2023-03-24T08:23:54;11.50;99.90
10419;DHT22;5256;48.728;9.140;2023-03-24T08:26:20;11.50;99.90
10419;DHT22;5256;48.728;9.140;2023-03-24T08:28:47;11.60;99.90
10419;DHT22;5256;48.728;9.140;2023-03-24T08:31:14;11.60;99.90
10419;DHT22;5256;48.728;9.140;2023-03-24T08:33:39;11.60;99.90
10419;DHT22;5256;48.728;9.140;2023-03-24T08:36:06;11.60;99.90
10419;DHT22;5256;48.728;9.140;2023-03-24T08:38:31;11.60;99.90
10419;DHT22;5256;48.728;9.140;2023-03-24T08:41:01;11.60;99.90
10419;DHT22;5256;48.728;9.140;2023-03-24T08:43:32;11.60;99.90
10419;DHT22;5256;48.728;9.140;2023-03-24T08:45:59;11.60;99.90
10419;DHT22;5256;48.728;9.140;2023-03-24T08:48:26;11.60;99.90
10419;DHT22;5256;48.728;9.140;2023-03-24T08:50:53;11.60;99.90
10419;DHT22;5256;48.728;9.140;2023-03-24T08:53:19;11.70;99.90
10419;DHT22;5256;48.728;9.140;2023-03-24T08:55:45;11.70;99.90
10419;DHT22;5256;48.728;9.140;2023-03-24T08:58:20;11.80;99.90
10419;DHT22;5256;48.728;9.140;2023-03-24T09:00:46;11.90;99.90
10419;DHT22;5256;48.728;9.140;2023-03-24T09:03:15;12.00;99.90
10419;DHT22;5256;48.728;9.140;2023-03-24T09:05:43;12.20;99.90
10419;DHT22;5256;48.728;9.140;2023-03-24T09:08:12;12.30;99.90
10419;DHT22;5256;48.728;9.140;2023-03-24T09:10:38;12.30;99.90
10419;DHT22;5256;48.728;9.140;2023-03-24T09:13:04;12.30;99.90
10419;DHT22;5256;48.728;9.140;2023-03-24T09:15:30;12.50;99.90
10419;DHT22;5256;48.728;9.140;2023-03-24T09:17:55;12.50;99.90
10419;DHT22;5256;48.728;9.140;2023-03-24T09:20:21;12.50;99.90
10419;DHT22;5256;48.728;9.140;2023-03-24T09:22:47;12.70;99.90
10419;DHT22;5256;48.728;9.140;2023-03-24T09:25:16;12.70;99.90
10419;DHT22;5256;48.728;9.140;2023-03-24T09:27:42;12.80;99.90
10419;DHT22;5256;48.728;9.140;2023-03-24T09:30:08;12.80;99.90
10419;DHT22;5256;48.728;9.140;2023-03-24T09:32:35;12.90;99.90
10419;DHT22;5256;48.728;9.140;2023-03-24T09:35:00;12.90;99.90
10419;DHT22;5256;48.728;9.140;2023-03-24T09:37:30;13.10;99.90
10419;DHT22;5256;48.728;9.140;2023-03-24T09:39:56;13.20;99.90
10419;DHT22;5256;48.728;9.140;2023-03-24T09:42:27;13.40;99.90
10419;DHT22;5256;48.728;9.140;2023-03-24T09:44:55;13.50;99.90
10419;DHT22;5256;48.728;9.140;2023-03-24T09:49:51;13.80;99.90
10419;DHT22;5256;48.728;9.140;2023-03-24T09:52:26;13.80;99.90
10419;DHT22;5256;48.728;9.140;2023-03-24T09:54:57;13.80;99.90
10419;DHT22;5256;48.728;9.140;2023-03-24T09:57:35;13.70;99.90
10419;DHT22;5256;48.728;9.140;2023-03-24T10:02:43;13.70;99.90
10419;DHT22;5256;48.728;9.140;2023-03-24T10:05:20;13.80;99.90
10419;DHT22;5256;48.728;9.140;2023-03-24T10:07:55;14.20;99.90
10419;DHT22;5256;48.728;9.140;2023-03-24T10:10:39;14.60;99.90
10419;DHT22;5256;48.728;9.140;2023-03-24T10:13:11;14.90;99.90
10419;DHT22;5256;48.728;9.140;2023-03-24T10:18:40;15.20;99.90
10419;DHT22;5256;48.728;9.140;2023-03-24T10:21:16;15.10;99.90
10419;DHT22;5256;48.728;9.140;2023-03-24T10:29:18;14.70;99.90
10419;DHT22;5256;48.728;9.140;2023-03-24T10:31:50;14.80;99.90
10419;DHT22;5256;48.728;9.140;2023-03-24T10:34:16;14.90;99.90
10419;DHT22;5256;48.728;9.140;2023-03-24T10:36:43;14.90;99.90
10419;DHT22;5256;48.728;9.140;2023-03-24T10:39:18;14.90;99.90
10419;DHT22;5256;48.728;9.140;2023-03-24T10:41:43;15.00;99.90
10419;DHT22;5256;48.728;9.140;2023-03-24T10:44:11;15.00;99.90
10419;DHT22;5256;48.728;9.140;2023-03-24T10:46:44;15.00;99.90
10419;DHT22;5256;48.728;9.140;2023-03-24T10:49:21;14.90;99.90
10419;DHT22;5256;48.728;9.140;2023-03-24T10:51:50;14.90;99.90
10419;DHT22;5256;48.728;9.140;2023-03-24T10:54:24;14.90;99.90
10419;DHT22;5256;48.728;9.140;2023-03-24T10:57:00;14.90;99.90
10419;DHT22;5256;48.728;9.140;2023-03-24T11:02:28;14.60;99.90
10419;DHT22;5256;48.728;9.140;2023-03-24T11:05:20;14.60;99.90
10419;DHT22;5256;48.728;9.140;2023-03-24T11:07:48;14.50;99.90
10419;DHT22;5256;48.728;9.140;2023-03-24T11:10:17;14.40;99.90
10419;DHT22;5256;48.728;9.140;2023-03-24T11:15:30;14.90;99.90
10419;DHT22;5256;48.728;9.140;2023-03-24T11:20:32;15.20;99.90
10419;DHT22;5256;48.728;9.140;2023-03-24T11:23:09;15.30;99.90
10419;DHT22;5256;48.728;9.140;2023-03-24T11:25:37;15.30;99.90
10419;DHT22;5256;48.728;9.140;2023-03-24T11:28:19;15.40;99.90
10419;DHT22;5256;48.728;9.140;2023-03-24T11:30:53;15.50;99.90
10419;DHT22;5256;48.728;9.140;2023-03-24T11:33:27;15.60;99.90
10419;DHT22;5256;48.728;9.140;2023-03-24T11:35:57;15.60;99.90
10419;DHT22;5256;48.728;9.140;2023-03-24T11:38:32;15.50;99.90
10419;DHT22;5256;48.728;9.140;2023-03-24T11:41:00;15.30;99.90
10419;DHT22;5256;48.728;9.140;2023-03-24T11:43:29;15.20;99.90
10419;DHT22;5256;48.728;9.140;2023-03-24T11:46:09;15.00;99.90
10419;DHT22;5256;48.728;9.140;2023-03-24T11:51:16;15.10;99.90
10419;DHT22;5256;48.728;9.140;2023-03-24T11:53:50;14.90;99.90
10419;DHT22;5256;48.728;9.140;2023-03-24T11:56:44;14.90;99.90
10419;DHT22;5256;48.728;9.140;2023-03-24T12:01:58;14.90;99.90
10419;DHT22;5256;48.728;9.140;2023-03-24T12:04:33;14.60;99.90
10419;DHT22;5256;48.728;9.140;2023-03-24T12:13:11;14.80;99.90
10419;DHT22;5256;48.728;9.140;2023-03-24T12:16:06;15.10;99.90
10419;DHT22;5256;48.728;9.140;2023-03-24T12:18:48;15.20;99.90
10419;DHT22;5256;48.728;9.140;2023-03-24T12:21:36;15.30;99.90
10419;DHT22;5256;48.728;9.140;2023-03-24T12:24:30;15.30;99.90
10419;DHT22;5256;48.728;9.140;2023-03-24T12:27:02;15.20;99.90
10419;DHT22;5256;48.728;9.140;2023-03-24T12:32:50;15.20;99.90
10419;DHT22;5256;48.728;9.140;2023-03-24T12:35:53;15.10;99.90
10419;DHT22;5256;48.728;9.140;2023-03-24T12:49:22;15.10;99.90
10419;DHT22;5256;48.728;9.140;2023-03-24T12:52:17;15.00;99.90
10419;DHT22;5256;48.728;9.140;2023-03-24T12:54:57;14.90;99.90
10419;DHT22;5256;48.728;9.140;2023-03-24T12:57:33;14.90;99.90
10419;DHT22;5256;48.728;9.140;2023-03-24T13:00:05;14.90;99.90
10419;DHT22;5256;48.728;9.140;2023-03-24T13:02:57;14.80;99.90
10419;DHT22;5256;48.728;9.140;2023-03-24T13:05:31;14.80;99.90
10419;DHT22;5256;48.728;9.140;2023-03-24T13:08:01;14.80;99.90
10419;DHT22;5256;48.728;9.140;2023-03-24T13:10:29;14.90;99.90
10419;DHT22;5256;48.728;9.140;2023-03-24T13:13:20;14.90;99.90
10419;DHT22;5256;48.728;9.140;2023-03-24T13:15:49;14.90;99.90
10419;DHT22;5256;48.728;9.140;2023-03-24T13:18:35;14.80;99.90
10419;DHT22;5256;48.728;9.140;2023-03-24T13:21:05;14.70;99.90
10419;DHT22;5256;48.728;9.140;2023-03-24T13:28:37;14.10;99.90
10419;DHT22;5256;48.728;9.140;2023-03-24T13:31:05;14.00;99.90
10419;DHT22;5256;48.728;9.140;2023-03-24T13:33:34;14.00;99.90
10419;DHT22;5256;48.728;9.140;2023-03-24T13:38:52;13.90;99.90
10419;DHT22;5256;48.728;9.140;2023-03-24T13:41:21;13.90;99.90
10419;DHT22;5256;48.728;9.140;2023-03-24T13:46:28;13.90;99.90
10419;DHT22;5256;48.728;9.140;2023-03-24T13:48:55;13.90;99.90
10419;DHT22;5256;48.728;9.140;2023-03-24T13:51:35;13.90;99.90
10419;DHT22;5256;48.728;9.140;2023-03-24T13:54:17;13.90;99.90
10419;DHT22;5256;48.728;9.140;2023-03-24T13:56:48;14.00;99.90
10419;DHT22;5256;48.728;9.140;2023-03-24T14:02:09;14.10;99.90
10419;DHT22;5256;48.728;9.140;2023-03-24T14:04:45;14.00;99.90
10419;DHT22;5256;48.728;9.140;2023-03-24T14:07:32;13.90;99.90
10419;DHT22;5256;48.728;9.140;2023-03-24T14:13:00;13.90;99.90
10419;DHT22;5256;48.728;9.140;2023-03-24T14:15:32;13.90;99.90
10419;DHT22;5256;48.728;9.140;2023-03-24T14:25:53;13.60;99.90
10419;DHT22;5256;48.728;9.140;2023-03-24T14:28:42;13.70;99.90
10419;DHT22;5256;48.728;9.140;2023-03-24T14:36:08;13.80;99.90
10419;DHT22;5256;48.728;9.140;2023-03-24T14:38:40;13.80;99.90
10419;DHT22;5256;48.728;9.140;2023-03-24T14:41:15;13.90;99.90
10419;DHT22;5256;48.728;9.140;2023-03-24T14:49:12;14.00;99.90
10419;DHT22;5256;48.728;9.140;2023-03-24T14:54:31;13.80;99.90
10419;DHT22;5256;48.728;9.140;2023-03-24T14:56:58;13.80;99.90
10419;DHT22;5256;48.728;9.140;2023-03-24T15:00:19;13.60;99.90
10419;DHT22;5256;48.728;9.140;2023-03-24T15:02:44;13.50;99.90
10419;DHT22;5256;48.728;9.140;2023-03-24T15:08:10;13.00;99.90
10419;DHT22;5256;48.728;9.140;2023-03-24T15:10:48;12.60;99.90
10419;DHT22;5256;48.728;9.140;2023-03-24T15:15:59;12.00;99.90
10419;DHT22;5256;48.728;9.140;2023-03-24T15:18:26;11.80;99.90
10419;DHT22;5256;48.728;9.140;2023-03-24T15:20:52;11.80;99.90
10419;DHT22;5256;48.728;9.140;2023-03-24T15:23:20;11.70;99.90
10419;DHT22;5256;48.728;9.140;2023-03-24T15:25:46;11.60;99.90
10419;DHT22;5256;48.728;9.140;2023-03-24T15:28:27;11.40;99.90
10419;DHT22;5256;48.728;9.140;2023-03-24T15:30:54;11.20;99.90
10419;DHT22;5256;48.728;9.140;2023-03-24T15:33:21;11.10;99.90
10419;DHT22;5256;48.728;9.140;2023-03-24T15:35:54;11.00;99.90
10419;DHT22;5256;48.728;9.140;2023-03-24T15:38:30;10.90;99.90
10419;DHT22;5256;48.728;9.140;2023-03-24T15:41:06;10.90;99.90
10419;DHT22;5256;48.728;9.140;2023-03-24T15:43:43;10.80;99.90
10419;DHT22;5256;48.728;9.140;2023-03-24T15:46:28;10.70;99.90
10419;DHT22;5256;48.728;9.140;2023-03-24T15:48:55;10.60;99.90
10419;DHT22;5256;48.728;9.140;2023-03-24T15:51:48;10.50;99.90
10419;DHT22;5256;48.728;9.140;2023-03-24T15:54:40;10.40;99.90
10419;DHT22;5256;48.728;9.140;2023-03-24T15:57:16;10.40;99.90
10419;DHT22;5256;48.728;9.140;2023-03-24T15:59:50;10.30;99.90
10419;DHT22;5256;48.728;9.140;2023-03-24T16:02:53;10.30;99.90
10419;DHT22;5256;48.728;9.140;2023-03-24T16:05:26;10.30;99.90
10419;DHT22;5256;48.728;9.140;2023-03-24T16:08:06;10.40;99.90
10419;DHT22;5256;48.728;9.140;2023-03-24T16:10:59;10.50;99.90
10419;DHT22;5256;48.728;9.140;2023-03-24T16:13:27;10.50;99.90
10419;DHT22;5256;48.728;9.140;2023-03-24T16:15:56;10.50;99.90
10419;DHT22;5256;48.728;9.140;2023-03-24T16:20:51;10.60;99.90
10419;DHT22;5256;48.728;9.140;2023-03-24T16:23:17;10.70;99.90
10419;DHT22;5256;48.728;9.140;2023-03-24T16:25:43;10.70;99.90
10419;DHT22;5256;48.728;9.140;2023-03-24T16:28:17;10.70;99.90
10419;DHT22;5256;48.728;9.140;2023-03-24T16:30:44;10.80;99.90
10419;DHT22;5256;48.728;9.140;2023-03-24T16:33:10;10.80;99.90
10419;DHT22;5256;48.728;9.140;2023-03-24T16:35:37;10.80;99.90
10419;DHT22;5256;48.728;9.140;2023-03-24T16:38:03;10.90;99.90
10419;DHT22;5256;48.728;9.140;2023-03-24T16:40:44;10.90;99.90
10419;DHT22;5256;48.728;9.140;2023-03-24T16:43:10;10.90;99.90
10419;DHT22;5256;48.728;9.140;2023-03-24T16:45:36;10.90;99.90
10419;DHT22;5256;48.728;9.140;2023-03-24T16:48:02;10.90;99.90
10419;DHT22;5256;48.728;9.140;2023-03-24T16:50:39;10.90;99.90
10419;DHT22;5256;48.728;9.140;2023-03-24T16:53:05;11.00;99.90
10419;DHT22;5256;48.728;9.140;2023-03-24T16:55:34;11.00;99.90
10419;DHT22;5256;48.728;9.140;2023-03-24T16:57:59;11.00;99.90
10419;DHT22;5256;48.728;9.140;2023-03-24T17:00:25;11.00;99.90
10419;DHT22;5256;48.728;9.140;2023-03-24T17:02:52;10.90;99.90
10419;DHT22;5256;48.728;9.140;2023-03-24T17:05:38;10.90;99.90
10419;DHT22;5256;48.728;9.140;2023-03-24T17:08:04;10.90;99.90
10419;DHT22;5256;48.728;9.140;2023-03-24T17:10:30;10.80;99.90
10419;DHT22;5256;48.728;9.140;2023-03-24T17:12:56;10.80;99.90
10419;DHT22;5256;48.728;9.140;2023-03-24T17:15:27;10.70;99.90
10419;DHT22;5256;48.728;9.140;2023-03-24T17:17:54;10.60;99.90
10419;DHT22;5256;48.728;9.140;2023-03-24T17:20:21;10.60;99.90
10419;DHT22;5256;48.728;9.140;2023-03-24T17:22:49;10.50;99.90
10419;DHT22;5256;48.728;9.140;2023-03-24T17:25:17;10.50;99.90
10419;DHT22;5256;48.728;9.140;2023-03-24T17:27:43;10.40;99.90
10419;DHT22;5256;48.728;9.140;2023-03-24T17:30:15;10.40;99.90
10419;DHT22;5256;48.728;9.140;2023-03-24T17:32:41;10.40;99.90
10419;DHT22;5256;48.728;9.140;2023-03-24T17:35:10;10.50;99.90
10419;DHT22;5256;48.728;9.140;2023-03-24T17:37:36;10.40;99.90
10419;DHT22;5256;48.728;9.140;2023-03-24T17:40:02;10.40;99.90
10419;DHT22;5256;48.728;9.140;2023-03-24T17:42:32;10.30;99.90
10419;DHT22;5256;48.728;9.140;2023-03-24T17:44:57;10.30;99.90
10419;DHT22;5256;48.728;9.140;2023-03-24T17:47:23;10.20;99.90
10419;DHT22;5256;48.728;9.140;2023-03-24T17:49:48;10.20;99.90
10419;DHT22;5256;48.728;9.140;2023-03-24T17:52:14;10.10;99.90
10419;DHT22;5256;48.728;9.140;2023-03-24T17:54:40;10.00;99.90
10419;DHT22;5256;48.728;9.140;2023-03-24T17:57:05;10.00;99.90
10419;DHT22;5256;48.728;9.140;2023-03-24T17:59:31;9.90;99.90
10419;DHT22;5256;48.728;9.140;2023-03-24T18:01:57;9.90;99.90
10419;DHT22;5256;48.728;9.140;2023-03-24T18:04:22;9.90;99.90
10419;DHT22;5256;48.728;9.140;2023-03-24T18:06:48;9.80;99.90
10419;DHT22;5256;48.728;9.140;2023-03-24T18:09:14;9.80;99.90
10419;DHT22;5256;48.728;9.140;2023-03-24T18:11:39;9.80;99.90
10419;DHT22;5256;48.728;9.140;2023-03-24T18:14:05;9.70;99.90
10419;DHT22;5256;48.728;9.140;2023-03-24T18:16:33;9.70;99.90
10419;DHT22;5256;48.728;9.140;2023-03-24T18:19:00;9.70;99.90
10419;DHT22;5256;48.728;9.140;2023-03-24T18:21:27;9.70;99.90
10419;DHT22;5256;48.728;9.140;2023-03-24T18:23:52;9.60;99.90
10419;DHT22;5256;48.728;9.140;2023-03-24T18:26:18;9.60;99.90